Airport Name : Konya

Other Name : Konya

ICAO : LTAN

IATA : KYA

FAA :

Latitude : 37.979

Longitude : 32.561861

Country : Türkiye

Local Date and Time : 21 Jul 2024 10:31

 

TAF (Terminal Aerodrome Forecast)

TAF LTAN 210440Z 2106/2115 02008KT CAVOK BECMG 2107/2109 SCT040

 

METAR (METeorological Aerodrome Report)

LTAN 210650Z 02006KT 310V080 CAVOK 28/08 Q1014 NOSIG

LTAN 210550Z 01007KT CAVOK 28/09 Q1014 NOSIG

LTAN 210450Z 36009KT CAVOK 26/10 Q1014 NOSIG

LTAN 210350Z 34008KT CAVOK 24/10 Q1013 NOSIG